Time;durP1;ratioP1;P1;durP2;ratioP2;P2;SDS_P1;SDS_P2;PMS_P1;PMS_P2;Temp;Humidity;BMP_temperature;BMP_pressure;BME280_temperature;BME280_humidity;BME280_pressure;Samples;Min_cycle;Max_cycle;Signal;HPM_P1;HPM_P2
2023/01/18 00:01:09;;;;;;;41.65;17.08;;;-4.10;99.90;;;;;;4996230;28;20033;-74
2023/01/18 00:03:37;;;;;;;42.33;19.25;;;-4.20;99.90;;;;;;5011257;28;20076;-76
2023/01/18 00:06:07;;;;;;;37.13;17.75;;;-4.10;99.90;;;;;;4992768;28;20044;-76
2023/01/18 00:08:35;;;;;;;39.20;17.85;;;-4.40;99.90;;;;;;5009749;28;20068;-75
2023/01/18 00:11:08;;;;;;;42.60;19.33;;;-4.40;99.90;;;;;;5005343;28;20268;-76
2023/01/18 00:13:35;;;;;;;53.22;20.55;;;-4.50;99.90;;;;;;5016853;28;20045;-75
2023/01/18 00:16:02;;;;;;;46.20;19.67;;;-4.60;99.90;;;;;;5018252;28;20049;-75
2023/01/18 00:18:29;;;;;;;35.00;17.95;;;-4.60;99.90;;;;;;5017797;28;20045;-76
2023/01/18 00:21:00;;;;;;;34.85;16.90;;;-4.60;99.90;;;;;;4992557;28;20041;-75
2023/01/18 00:23:28;;;;;;;37.53;18.08;;;-4.70;99.90;;;;;;5007701;28;20079;-76
2023/01/18 00:26:08;;;;;;;39.80;17.52;;;-4.60;99.90;;;;;;5012131;28;20068;-75
2023/01/18 00:28:36;;;;;;;43.33;17.58;;;-4.50;99.90;;;;;;5008104;28;20083;-76
2023/01/18 00:31:21;;;;;;;29.17;16.35;;;-4.60;99.90;;;;;;5008548;28;20482;-75
2023/01/18 00:33:49;;;;;;;33.25;16.60;;;-4.70;99.90;;;;;;5016982;28;20041;-76
2023/01/18 00:36:17;;;;;;;27.15;14.93;;;-4.70;99.90;;;;;;4994467;28;20087;-74
2023/01/18 00:38:50;;;;;;;33.53;16.75;;;-4.70;99.90;;;;;;5018638;28;20526;-75
2023/01/18 00:41:18;;;;;;;35.72;16.98;;;-4.80;99.90;;;;;;4985853;28;20132;-75
2023/01/18 00:43:46;;;;;;;40.55;18.42;;;-5.00;99.90;;;;;;5010559;28;20049;-74
2023/01/18 00:46:32;;;;;;;35.20;18.23;;;-4.90;99.90;;;;;;5012471;28;20085;-75
2023/01/18 00:48:59;;;;;;;35.53;17.48;;;-4.70;99.90;;;;;;4992159;28;20121;-75
2023/01/18 00:51:26;;;;;;;38.00;17.73;;;-4.70;99.90;;;;;;5011570;28;20053;-74
2023/01/18 00:53:53;;;;;;;32.88;16.08;;;-4.70;99.90;;;;;;5010951;28;20049;-75
2023/01/18 00:56:21;;;;;;;32.90;15.32;;;-4.70;99.90;;;;;;5008039;28;20073;-75
2023/01/18 00:58:48;;;;;;;31.58;16.15;;;-4.90;99.90;;;;;;4997864;28;20297;-76
2023/01/18 01:01:15;;;;;;;34.70;15.95;;;-5.00;99.90;;;;;;4998908;28;20465;-75
2023/01/18 01:06:43;;;;;;;34.10;15.20;;;-4.80;99.90;;;;;;5013163;28;20041;-74
2023/01/18 01:09:15;;;;;;;35.05;17.02;;;-4.70;99.90;;;;;;5012267;28;20233;-74
2023/01/18 01:28:15;;;;;;;34.78;15.27;;;-4.80;99.90;;;;;;5008693;28;20053;-74
2023/01/18 01:30:43;;;;;;;30.50;16.10;;;-4.90;99.90;;;;;;5016594;28;20077;-74
2023/01/18 01:33:10;;;;;;;37.47;15.98;;;-4.90;99.90;;;;;;5011062;28;20076;-74
2023/01/18 01:35:36;;;;;;;32.00;16.92;;;-5.00;99.90;;;;;;5011979;28;20055;-76
2023/01/18 01:38:03;;;;;;;29.52;15.68;;;-5.00;99.90;;;;;;4990910;28;20041;-76
2023/01/18 01:40:30;;;;;;;32.97;17.77;;;-5.00;99.90;;;;;;5015644;28;20044;-75
2023/01/18 01:42:56;;;;;;;38.58;17.70;;;-4.90;99.90;;;;;;4993369;28;20037;-76
2023/01/18 01:45:27;;;;;;;29.35;17.17;;;-4.80;99.90;;;;;;5008584;28;20503;-75
2023/01/18 01:47:56;;;;;;;32.85;17.65;;;-4.60;99.90;;;;;;5004025;28;20052;-77
2023/01/18 01:50:34;;;;;;;40.33;18.05;;;-4.60;99.90;;;;;;5008004;28;20228;-74
2023/01/18 01:53:02;;;;;;;34.88;16.60;;;-4.40;99.90;;;;;;5009773;28;20045;-76
2023/01/18 01:55:33;;;;;;;34.28;17.33;;;-4.30;99.90;;;;;;4985678;28;20045;-76
2023/01/18 01:58:06;;;;;;;40.03;17.77;;;-4.30;99.90;;;;;;4996802;28;20707;-75
2023/01/18 02:00:33;;;;;;;34.38;18.55;;;-4.50;99.90;;;;;;5011213;28;20132;-76
2023/01/18 02:03:06;;;;;;;33.90;18.42;;;-4.80;99.90;;;;;;5009158;28;20494;-75
2023/01/18 02:05:39;;;;;;;40.00;19.13;;;-4.90;99.90;;;;;;5007211;28;20045;-77
2023/01/18 02:08:10;;;;;;;34.10;17.38;;;-4.90;99.90;;;;;;5026836;28;20107;-76
2023/01/18 02:10:37;;;;;;;32.42;16.88;;;-5.00;99.90;;;;;;5003644;28;20044;-76
2023/01/18 02:13:12;;;;;;;36.83;17.35;;;-5.00;99.90;;;;;;5012314;28;20033;-76
2023/01/18 02:15:46;;;;;;;28.90;16.52;;;-4.90;99.90;;;;;;5019556;28;20574;-75
2023/01/18 02:18:41;;;;;;;32.35;16.55;;;-5.00;99.90;;;;;;4996448;28;20049;-76
2023/01/18 02:21:26;;;;;;;28.73;16.30;;;-5.10;99.90;;;;;;4994342;28;21896;-76
2023/01/18 02:24:36;;;;;;;35.25;16.02;;;-5.10;99.90;;;;;;4990927;28;20120;-75
2023/01/18 02:27:09;;;;;;;32.50;15.88;;;-5.00;99.90;;;;;;4998263;28;20037;-75
2023/01/18 02:29:39;;;;;;;34.33;15.63;;;-4.80;99.90;;;;;;5010773;28;20051;-76
2023/01/18 02:32:35;;;;;;;29.23;14.57;;;-4.80;99.90;;;;;;5001853;28;20042;-75
2023/01/18 02:35:10;;;;;;;38.53;17.75;;;-4.80;99.90;;;;;;4972073;28;20056;-76
2023/01/18 02:37:54;;;;;;;32.40;16.08;;;-5.10;99.90;;;;;;4994776;28;20144;-76
2023/01/18 02:40:36;;;;;;;39.95;18.02;;;-4.90;99.90;;;;;;5002653;28;20089;-76
2023/01/18 02:48:42;;;;;;;33.65;16.98;;;-4.90;99.90;;;;;;5033789;28;20493;-76
2023/01/18 02:51:12;;;;;;;33.40;18.58;;;-5.00;99.90;;;;;;5007395;28;20124;-74
2023/01/18 02:53:43;;;;;;;30.95;17.67;;;-5.10;99.90;;;;;;5015667;28;20072;-75
2023/01/18 02:56:19;;;;;;;28.63;17.77;;;-5.20;99.90;;;;;;5019641;28;20136;-76
2023/01/18 02:58:52;;;;;;;31.80;18.08;;;-5.20;99.90;;;;;;5007260;28;20045;-75
2023/01/18 03:01:25;;;;;;;29.27;18.77;;;-5.30;99.90;;;;;;5013159;28;20499;-76
2023/01/18 03:04:02;;;;;;;33.95;19.52;;;-5.50;99.90;;;;;;4993493;28;20049;-76
2023/01/18 03:06:29;;;;;;;37.90;18.38;;;-5.50;99.90;;;;;;5017123;28;20422;-76
2023/01/18 03:08:58;;;;;;;37.65;18.90;;;-5.50;99.90;;;;;;5001236;28;20113;-77
2023/01/18 03:11:55;;;;;;;37.38;19.60;;;-5.40;99.90;;;;;;5018406;28;20057;-76
2023/01/18 03:14:30;;;;;;;35.35;20.27;;;-5.30;99.90;;;;;;5002224;28;20075;-77
2023/01/18 03:17:44;;;;;;;38.25;19.58;;;-5.30;99.90;;;;;;5020325;28;20064;-76
2023/01/18 03:20:15;;;;;;;42.35;20.23;;;-5.10;99.90;;;;;;4904127;29;20056;-76
2023/01/18 03:25:40;;;;;;;37.63;19.10;;;-5.10;99.90;;;;;;5011169;28;20044;-75
2023/01/18 03:34:23;;;;;;;38.15;19.15;;;-5.40;99.90;;;;;;5012654;28;20044;-76
2023/01/18 03:36:52;;;;;;;34.22;18.08;;;-5.50;99.90;;;;;;4997294;28;20396;-76
2023/01/18 03:39:30;;;;;;;34.05;18.00;;;-5.40;99.90;;;;;;4993211;28;20136;-75
2023/01/18 03:42:02;;;;;;;34.17;18.65;;;-5.30;99.90;;;;;;5012175;28;20767;-74
2023/01/18 03:44:39;;;;;;;38.55;19.55;;;-5.30;99.90;;;;;;5011247;28;20059;-76
2023/01/18 03:47:07;;;;;;;35.30;18.92;;;-5.40;99.90;;;;;;5013359;28;20033;-76
2023/01/18 03:49:34;;;;;;;32.67;19.02;;;-5.50;99.90;;;;;;5024948;28;20650;-75
2023/01/18 03:52:03;;;;;;;35.42;19.60;;;-5.50;99.90;;;;;;5010169;28;20079;-77
2023/01/18 03:55:07;;;;;;;35.67;19.08;;;-5.40;99.90;;;;;;5014021;28;20042;-76
2023/01/18 03:57:39;;;;;;;44.47;18.50;;;-5.30;99.90;;;;;;5010192;28;20047;-75
2023/01/18 04:00:09;;;;;;;34.25;19.40;;;-5.40;99.90;;;;;;5001221;28;20068;-76
2023/01/18 04:02:39;;;;;;;39.40;20.77;;;-5.30;99.90;;;;;;5014837;28;20124;-76
2023/01/18 04:05:06;;;;;;;43.22;18.75;;;-5.50;99.90;;;;;;5033972;28;20048;-77
2023/01/18 04:07:33;;;;;;;36.13;19.02;;;-5.50;99.90;;;;;;5007833;28;20660;-76
2023/01/18 04:10:00;;;;;;;30.52;17.10;;;-5.40;99.90;;;;;;4996993;28;20050;-76
2023/01/18 04:12:27;;;;;;;28.27;17.55;;;-5.40;99.90;;;;;;5002459;28;20055;-75
2023/01/18 04:14:53;;;;;;;30.38;18.00;;;-5.40;99.90;;;;;;4999701;28;20529;-76
2023/01/18 04:17:20;;;;;;;33.20;19.13;;;-5.40;99.90;;;;;;5011547;28;20045;-75
2023/01/18 04:19:47;;;;;;;35.60;18.83;;;-5.50;99.90;;;;;;5019177;28;20041;-77
2023/01/18 04:22:13;;;;;;;40.47;19.50;;;-5.50;99.90;;;;;;5016823;28;20048;-76
2023/01/18 04:24:40;;;;;;;34.85;19.95;;;-5.60;99.90;;;;;;4999855;28;20049;-77
2023/01/18 04:27:07;;;;;;;38.13;20.25;;;-5.60;99.90;;;;;;5010265;28;20551;-76
2023/01/18 04:29:34;;;;;;;35.90;20.52;;;-5.70;99.90;;;;;;5043246;28;20036;-76
2023/01/18 04:32:00;;;;;;;33.10;19.65;;;-5.60;99.90;;;;;;5017791;28;20030;-78
2023/01/18 04:34:27;;;;;;;30.10;20.55;;;-5.60;99.90;;;;;;4993066;28;20051;-77
2023/01/18 04:36:54;;;;;;;33.38;19.58;;;-5.60;99.90;;;;;;5015300;28;20129;-74
2023/01/18 04:39:21;;;;;;;33.70;19.30;;;-5.50;99.90;;;;;;5002484;28;20072;-77
2023/01/18 04:41:47;;;;;;;41.38;17.98;;;-5.40;99.90;;;;;;5002767;28;20646;-76
2023/01/18 04:44:15;;;;;;;42.20;19.20;;;-5.50;99.90;;;;;;5019230;28;20454;-79
2023/01/18 04:46:42;;;;;;;33.67;18.88;;;-5.50;99.90;;;;;;5007191;28;20037;-77
2023/01/18 04:49:12;;;;;;;32.88;17.52;;;-5.40;99.90;;;;;;5003924;28;20048;-76
2023/01/18 04:51:39;;;;;;;33.67;17.60;;;-5.40;99.90;;;;;;4989020;28;20069;-75
2023/01/18 04:54:05;;;;;;;38.83;19.67;;;-5.30;99.90;;;;;;5016925;28;20128;-77
2023/01/18 04:56:32;;;;;;;40.72;21.10;;;-5.30;99.90;;;;;;4994572;28;20064;-77
2023/01/18 04:58:59;;;;;;;35.10;17.48;;;-5.30;99.90;;;;;;5000138;28;20568;-75
2023/01/18 05:01:25;;;;;;;34.63;17.90;;;-5.30;99.90;;;;;;5012759;28;20052;-76
2023/01/18 05:03:53;;;;;;;29.65;17.00;;;-5.30;99.90;;;;;;5024122;28;20045;-75
2023/01/18 05:06:19;;;;;;;36.42;19.27;;;-5.20;99.90;;;;;;5022937;28;20034;-77
2023/01/18 05:08:47;;;;;;;39.50;21.02;;;-5.20;99.90;;;;;;5020761;28;20073;-78
2023/01/18 05:11:16;;;;;;;32.00;20.35;;;-5.30;99.90;;;;;;5000400;28;20047;-77
2023/01/18 05:13:43;;;;;;;41.03;21.67;;;-5.40;99.90;;;;;;5013268;28;20133;-77
2023/01/18 05:16:20;;;;;;;42.05;21.02;;;-5.40;99.90;;;;;;5005830;28;20096;-77
2023/01/18 05:18:47;;;;;;;37.15;20.05;;;-5.50;99.90;;;;;;5022297;28;20050;-77
2023/01/18 05:21:14;;;;;;;35.20;20.83;;;-5.50;99.90;;;;;;5016709;28;20401;-78
2023/01/18 05:23:41;;;;;;;35.70;19.65;;;-5.50;99.90;;;;;;5006652;28;20686;-77
2023/01/18 05:26:15;;;;;;;39.75;20.33;;;-5.40;99.90;;;;;;5014590;28;20095;-77
2023/01/18 05:28:43;;;;;;;;;;;-5.40;99.90;;;;;;5009757;28;20049;-77
2023/01/18 05:31:10;;;;;;;38.53;19.52;;;-5.30;99.90;;;;;;5012574;28;19928;-77
2023/01/18 05:33:37;;;;;;;42.60;20.25;;;-5.20;99.90;;;;;;5016818;28;20053;-77
2023/01/18 05:36:04;;;;;;;44.03;20.90;;;-5.20;99.90;;;;;;5015670;28;20037;-76
2023/01/18 05:38:31;;;;;;;38.60;21.00;;;-5.00;99.90;;;;;;4994248;28;20045;-79
2023/01/18 05:40:58;;;;;;;33.20;17.92;;;-5.00;99.90;;;;;;4999199;28;20038;-76
2023/01/18 05:43:26;;;;;;;32.60;19.48;;;-4.90;99.90;;;;;;5019947;28;20049;-78
2023/01/18 05:45:53;;;;;;;43.28;19.60;;;-4.90;99.90;;;;;;5010407;28;20111;-79
2023/01/18 05:48:21;;;;;;;37.90;19.83;;;-4.90;99.90;;;;;;5010981;28;20079;-77
2023/01/18 05:50:47;;;;;;;40.40;21.40;;;-4.90;99.90;;;;;;5013360;28;20043;-79
2023/01/18 05:53:22;;;;;;;38.40;20.88;;;-5.10;99.90;;;;;;4996299;28;20387;-74
2023/01/18 05:55:57;;;;;;;39.97;21.55;;;-5.30;99.90;;;;;;5016869;28;20041;-78
2023/01/18 05:58:25;;;;;;;42.22;20.52;;;-5.30;99.90;;;;;;5002144;28;20151;-77
2023/01/18 06:00:52;;;;;;;43.78;21.80;;;-5.40;99.90;;;;;;5009508;28;20076;-78
2023/01/18 06:03:19;;;;;;;39.67;21.15;;;-5.40;99.90;;;;;;5012013;28;20402;-77
2023/01/18 06:05:47;;;;;;;38.95;21.63;;;-5.40;99.90;;;;;;5009518;28;20407;-76
2023/01/18 06:08:14;;;;;;;39.85;22.30;;;-5.20;99.90;;;;;;5015516;28;20284;-77
2023/01/18 06:10:41;;;;;;;35.97;22.33;;;-5.30;99.90;;;;;;5019454;28;20048;-77
2023/01/18 06:13:09;;;;;;;54.05;23.38;;;-5.40;99.90;;;;;;5006564;28;20451;-78
2023/01/18 06:15:36;;;;;;;46.28;23.73;;;-5.40;99.90;;;;;;5008951;28;20287;-78
2023/01/18 06:18:03;;;;;;;37.70;23.80;;;-5.50;99.90;;;;;;4995527;28;20065;-77
2023/01/18 06:20:30;;;;;;;43.35;23.20;;;-5.50;99.90;;;;;;5015928;28;20037;-77
2023/01/18 06:22:57;;;;;;;45.00;23.60;;;-5.60;99.90;;;;;;4998298;28;20045;-78
2023/01/18 06:25:24;;;;;;;44.17;23.52;;;-5.70;99.90;;;;;;5011820;28;20045;-77
2023/01/18 06:27:51;;;;;;;46.28;24.52;;;-5.50;99.90;;;;;;5017130;28;20540;-77
2023/01/18 06:30:18;;;;;;;61.92;35.78;;;-5.50;99.90;;;;;;5015080;28;20053;-78
2023/01/18 06:32:47;;;;;;;59.13;33.33;;;-5.50;99.90;;;;;;5011978;28;20033;-78
2023/01/18 06:35:14;;;;;;;77.60;41.28;;;-5.50;99.90;;;;;;5007950;28;20050;-78
2023/01/18 06:37:40;;;;;;;68.22;37.10;;;-5.60;99.90;;;;;;5001608;28;20052;-77
2023/01/18 06:40:08;;;;;;;57.75;33.67;;;-5.60;99.90;;;;;;5000829;28;20601;-78
2023/01/18 06:42:35;;;;;;;66.00;35.70;;;-5.60;99.90;;;;;;5021247;28;20056;-76
2023/01/18 06:45:02;;;;;;;54.70;32.33;;;-5.70;99.90;;;;;;4999556;28;20592;-75
2023/01/18 06:47:28;;;;;;;54.88;33.22;;;-5.70;99.90;;;;;;5023236;28;20512;-76
2023/01/18 06:49:55;;;;;;;46.83;31.27;;;-5.70;99.90;;;;;;5009096;28;20037;-76
2023/01/18 06:52:22;;;;;;;52.67;29.33;;;-5.50;99.90;;;;;;4996231;28;20144;-77
2023/01/18 06:54:49;;;;;;;41.45;25.42;;;-5.60;99.90;;;;;;5019414;28;20045;-76
2023/01/18 06:57:15;;;;;;;40.90;27.98;;;-5.50;99.90;;;;;;5003615;28;20564;-76
2023/01/18 06:59:42;;;;;;;43.95;25.45;;;-5.30;99.90;;;;;;5004497;28;20510;-75
2023/01/18 07:02:12;;;;;;;49.15;25.63;;;-5.10;99.90;;;;;;5020408;28;20045;-76
2023/01/18 07:04:42;;;;;;;44.75;24.23;;;-5.10;99.90;;;;;;5019436;28;20201;-75
2023/01/18 07:07:10;;;;;;;49.90;28.85;;;-5.40;99.90;;;;;;5020042;28;20040;-77
2023/01/18 07:09:37;;;;;;;41.80;25.38;;;-5.50;99.90;;;;;;4995773;28;20053;-77
2023/01/18 07:12:04;;;;;;;41.15;25.48;;;-5.40;99.90;;;;;;5020258;28;20111;-75
2023/01/18 07:14:30;;;;;;;54.13;28.63;;;-5.40;99.90;;;;;;5007917;28;20116;-75
2023/01/18 07:16:57;;;;;;;45.33;26.63;;;-5.50;99.90;;;;;;5014955;28;20348;-77
2023/01/18 07:19:24;;;;;;;49.25;26.77;;;-5.40;99.90;;;;;;5006362;28;20291;-75
2023/01/18 07:21:52;;;;;;;49.03;27.60;;;-5.50;99.90;;;;;;5014064;28;20037;-75
2023/01/18 07:24:20;;;;;;;46.28;24.63;;;-5.40;99.90;;;;;;5024893;28;20182;-75
2023/01/18 07:26:46;;;;;;;53.58;26.88;;;-5.40;99.90;;;;;;5016654;28;20144;-78
2023/01/18 07:29:13;;;;;;;49.30;28.48;;;-5.30;99.90;;;;;;5042611;28;20251;-77
2023/01/18 07:31:40;;;;;;;39.90;27.30;;;-5.20;99.90;;;;;;5005807;28;20375;-76
2023/01/18 07:34:08;;;;;;;48.53;28.20;;;-5.30;99.90;;;;;;4999421;28;20452;-76
2023/01/18 07:36:38;;;;;;;52.38;28.52;;;-5.40;99.90;;;;;;5004250;28;20103;-75
2023/01/18 07:39:05;;;;;;;47.90;29.17;;;-5.30;99.90;;;;;;4998237;28;20559;-76
2023/01/18 07:41:32;;;;;;;45.17;30.00;;;-5.30;99.90;;;;;;5004554;28;20045;-76
2023/01/18 07:43:59;;;;;;;50.13;30.67;;;-5.40;99.90;;;;;;5021882;28;20257;-76
2023/01/18 07:46:26;;;;;;;48.17;29.55;;;-5.40;99.90;;;;;;4994720;28;20042;-75
2023/01/18 07:48:53;;;;;;;56.05;33.53;;;-5.40;99.90;;;;;;5019492;28;20068;-75
2023/01/18 07:51:21;;;;;;;59.88;33.40;;;-5.30;99.90;;;;;;5012190;28;20540;-75
2023/01/18 07:53:52;;;;;;;51.53;31.75;;;-5.50;99.90;;;;;;5009658;28;20092;-75
2023/01/18 07:56:21;;;;;;;49.88;30.98;;;-5.50;99.90;;;;;;5013336;28;20043;-76
2023/01/18 07:58:48;;;;;;;53.28;31.38;;;-5.50;99.90;;;;;;5004441;28;20660;-75
2023/01/18 08:01:18;;;;;;;59.90;34.72;;;-5.50;99.90;;;;;;4999777;28;20042;-76
2023/01/18 08:03:46;;;;;;;61.65;33.83;;;-5.40;99.90;;;;;;5000444;28;20534;-76
2023/01/18 08:06:17;;;;;;;55.85;34.42;;;-5.20;99.90;;;;;;5016948;28;20057;-76
2023/01/18 08:08:44;;;;;;;57.40;32.92;;;-5.10;99.90;;;;;;5032663;28;20094;-77
2023/01/18 08:11:11;;;;;;;62.20;33.85;;;-5.00;99.90;;;;;;4998369;28;20049;-77
2023/01/18 08:13:38;;;;;;;58.10;33.83;;;-5.00;99.90;;;;;;5002741;28;20384;-75
2023/01/18 08:16:07;;;;;;;51.35;31.60;;;-4.80;99.90;;;;;;5008631;28;20038;-74
2023/01/18 08:18:34;;;;;;;56.67;32.65;;;-4.70;99.90;;;;;;5014328;28;20064;-76
2023/01/18 08:21:01;;;;;;;51.53;31.33;;;-4.70;99.90;;;;;;5027338;28;20036;-76
2023/01/18 08:23:28;;;;;;;59.08;29.85;;;-4.70;99.90;;;;;;5004643;28;20045;-76
2023/01/18 08:25:58;;;;;;;56.22;28.40;;;-4.60;99.90;;;;;;5014999;28;20045;-76
2023/01/18 08:28:25;;;;;;;48.53;28.20;;;-4.50;99.90;;;;;;5017550;28;20049;-76
2023/01/18 08:30:52;;;;;;;115.13;49.03;;;-4.70;99.90;;;;;;5010761;28;20138;-75
2023/01/18 08:33:18;;;;;;;88.53;43.03;;;-4.80;99.90;;;;;;5016361;28;20065;-77
2023/01/18 08:35:46;;;;;;;102.20;43.70;;;-4.70;99.90;;;;;;5008511;28;20121;-75
2023/01/18 08:38:14;;;;;;;147.35;52.28;;;-4.60;99.90;;;;;;5009959;28;20121;-75
2023/01/18 08:40:41;;;;;;;110.75;46.22;;;-4.50;99.90;;;;;;5006750;28;20120;-75
2023/01/18 08:43:10;;;;;;;82.10;39.40;;;-4.50;99.90;;;;;;5008140;28;20118;-76
2023/01/18 08:45:37;;;;;;;69.57;38.40;;;-4.60;99.90;;;;;;5029051;28;20069;-77
2023/01/18 08:48:09;;;;;;;80.93;39.22;;;-4.60;99.90;;;;;;5020446;28;20087;-75
2023/01/18 08:50:38;;;;;;;74.30;38.78;;;-4.50;99.90;;;;;;5008586;28;20052;-75
2023/01/18 08:53:04;;;;;;;85.18;45.75;;;-4.40;99.90;;;;;;5000745;28;20045;-75
2023/01/18 08:55:32;;;;;;;117.03;59.35;;;-4.30;99.90;;;;;;5016097;28;20045;-75
2023/01/18 08:57:59;;;;;;;113.32;59.88;;;-4.20;99.90;;;;;;5023126;28;20028;-76
2023/01/18 09:00:29;;;;;;;119.65;62.30;;;-4.20;99.90;;;;;;5016313;28;20471;-75
2023/01/18 09:02:57;;;;;;;100.93;55.35;;;-4.10;99.90;;;;;;4991655;28;20099;-75
2023/01/18 09:05:25;;;;;;;86.43;46.45;;;-4.00;99.90;;;;;;4993977;28;20055;-76
2023/01/18 09:07:53;;;;;;;80.22;44.67;;;-3.90;99.90;;;;;;5021534;28;20045;-76
2023/01/18 09:10:21;;;;;;;87.95;46.28;;;-3.80;99.90;;;;;;5000578;28;20083;-76
2023/01/18 09:12:48;;;;;;;83.72;45.33;;;-3.70;99.90;;;;;;5020240;28;20073;-76
2023/01/18 09:15:17;;;;;;;74.28;44.10;;;-3.60;99.90;;;;;;5000819;28;20547;-76
2023/01/18 09:17:43;;;;;;;72.90;43.78;;;-3.50;99.90;;;;;;5024188;28;20044;-76
2023/01/18 09:20:10;;;;;;;76.45;44.15;;;-3.50;99.90;;;;;;5009317;28;20038;-76
2023/01/18 09:22:38;;;;;;;84.85;47.47;;;-3.40;99.90;;;;;;5008340;28;20072;-76
2023/01/18 09:25:05;;;;;;;77.85;46.53;;;-3.40;99.90;;;;;;5015301;28;20051;-76
2023/01/18 09:27:32;;;;;;;81.45;50.75;;;-3.20;99.90;;;;;;5020987;28;20757;-76
2023/01/18 09:29:59;;;;;;;81.75;49.00;;;-3.10;99.90;;;;;;5011494;28;20170;-75
2023/01/18 09:32:26;;;;;;;92.45;54.63;;;-3.00;99.90;;;;;;4997130;28;20505;-76
2023/01/18 09:34:53;;;;;;;84.80;52.47;;;-2.90;99.90;;;;;;5005132;28;20041;-77
2023/01/18 09:37:20;;;;;;;104.50;59.83;;;-2.90;99.90;;;;;;5009845;28;20045;-76
2023/01/18 09:39:47;;;;;;;102.95;63.53;;;-2.70;99.90;;;;;;4995420;28;20138;-76
2023/01/18 09:42:22;;;;;;;104.72;65.30;;;-2.70;99.90;;;;;;5014108;28;20152;-76
2023/01/18 09:44:52;;;;;;;107.10;64.18;;;-2.50;99.90;;;;;;4991527;28;20052;-75
2023/01/18 09:47:39;;;;;;;107.38;62.90;;;-2.30;99.90;;;;;;4983718;28;20084;-76
2023/01/18 09:50:05;;;;;;;139.20;86.05;;;-2.20;99.90;;;;;;4990507;28;20049;-77
2023/01/18 09:52:46;;;;;;;118.95;72.28;;;-2.00;99.90;;;;;;5010066;28;20486;-76
2023/01/18 09:55:26;;;;;;;210.57;110.03;;;-1.90;99.90;;;;;;5013731;28;20041;-75
2023/01/18 09:58:15;;;;;;;134.27;75.95;;;-1.70;99.90;;;;;;5020954;28;20037;-76
2023/01/18 10:00:45;;;;;;;132.85;77.65;;;-1.70;99.90;;;;;;5008345;28;20037;-76
2023/01/18 10:03:43;;;;;;;132.05;78.43;;;-1.50;99.90;;;;;;5027994;28;20059;-75
2023/01/18 10:06:18;;;;;;;106.57;67.50;;;-1.30;99.90;;;;;;4957778;28;20073;-76
2023/01/18 10:08:53;;;;;;;124.60;69.95;;;-1.30;99.90;;;;;;5014292;28;20045;-77
2023/01/18 10:11:35;;;;;;;135.23;69.07;;;-1.10;99.90;;;;;;4995562;28;20127;-77
2023/01/18 10:14:12;;;;;;;137.07;67.47;;;-1.00;99.90;;;;;;5009023;28;20599;-77
2023/01/18 10:16:39;;;;;;;122.53;73.03;;;-1.00;99.90;;;;;;5011535;28;20102;-76
2023/01/18 10:19:24;;;;;;;119.35;74.05;;;-0.80;99.90;;;;;;5015194;28;20120;-76
2023/01/18 10:21:56;;;;;;;130.32;73.38;;;-0.70;99.90;;;;;;5020017;28;20033;-77
2023/01/18 10:24:42;;;;;;;122.00;74.07;;;-0.80;99.90;;;;;;4994721;28;20048;-75
2023/01/18 10:27:15;;;;;;;113.82;70.97;;;-0.60;99.90;;;;;;5014635;28;20041;-76
2023/01/18 10:30:14;;;;;;;99.40;58.75;;;-0.50;99.90;;;;;;5022566;28;20045;-76
2023/01/18 10:32:50;;;;;;;101.75;60.70;;;-0.50;99.90;;;;;;4987166;28;20045;-76
2023/01/18 10:35:33;;;;;;;79.28;48.30;;;-0.50;99.90;;;;;;5007396;28;20038;-75
2023/01/18 10:38:04;;;;;;;64.47;43.20;;;-0.40;99.90;;;;;;4994897;28;20048;-76
2023/01/18 10:40:33;;;;;;;72.65;46.53;;;-0.30;99.90;;;;;;4993706;28;20113;-77
2023/01/18 10:43:01;;;;;;;77.13;47.03;;;-0.30;99.90;;;;;;5011018;28;20136;-77
2023/01/18 10:45:33;;;;;;;103.88;61.40;;;-0.30;99.90;;;;;;4998404;28;20041;-77
2023/01/18 10:48:12;;;;;;;88.72;56.40;;;-0.10;99.90;;;;;;4999000;28;20083;-78
2023/01/18 10:50:43;;;;;;;82.57;50.50;;;0.00;99.90;;;;;;4997401;28;20044;-79
2023/01/18 10:53:22;;;;;;;69.18;42.55;;;0.00;99.90;;;;;;5010371;28;20045;-81
2023/01/18 10:55:58;;;;;;;63.53;42.95;;;0.00;99.90;;;;;;5018267;28;20056;-79
2023/01/18 10:58:51;;;;;;;61.28;39.45;;;0.00;99.90;;;;;;5003112;28;20045;-78
2023/01/18 11:01:51;;;;;;;70.53;43.80;;;0.00;99.90;;;;;;5018664;28;20617;-77
2023/01/18 11:04:27;;;;;;;62.92;39.17;;;0.10;99.90;;;;;;5006237;28;20072;-77
2023/01/18 11:06:56;;;;;;;70.00;41.17;;;0.20;99.90;;;;;;5010304;28;20130;-78
2023/01/18 11:09:52;;;;;;;59.22;38.25;;;0.20;99.90;;;;;;5016838;28;20045;-77
2023/01/18 11:12:43;;;;;;;58.63;38.70;;;0.20;99.90;;;;;;5020841;28;20041;-77
2023/01/18 11:15:12;;;;;;;69.65;41.85;;;0.30;99.90;;;;;;5001407;28;20482;-76
2023/01/18 11:17:42;;;;;;;66.07;42.25;;;0.30;99.90;;;;;;5033607;28;20045;-78
2023/01/18 11:20:23;;;;;;;66.60;42.10;;;0.50;99.90;;;;;;4998155;28;20173;-77
2023/01/18 11:22:55;;;;;;;74.55;45.75;;;0.60;99.90;;;;;;5004068;28;20032;-76
2023/01/18 11:25:22;;;;;;;77.00;46.13;;;0.80;99.90;;;;;;5027911;28;20061;-77
2023/01/18 11:27:48;;;;;;;89.85;50.42;;;0.80;99.90;;;;;;5015187;28;20119;-76
2023/01/18 11:30:20;;;;;;;63.10;42.75;;;0.80;99.90;;;;;;5005491;28;20141;-76
2023/01/18 11:32:48;;;;;;;79.63;44.65;;;0.80;99.90;;;;;;5003649;28;20037;-77
2023/01/18 11:35:29;;;;;;;62.70;41.40;;;0.80;99.90;;;;;;5014011;28;20046;-77
2023/01/18 11:38:01;;;;;;;75.28;41.08;;;0.80;99.90;;;;;;5026046;28;20044;-77
2023/01/18 11:40:33;;;;;;;71.20;43.80;;;0.80;99.90;;;;;;5021505;28;20045;-76
2023/01/18 11:43:12;;;;;;;64.63;43.38;;;1.00;99.90;;;;;;5008824;28;20041;-77
2023/01/18 11:45:47;;;;;;;54.78;38.05;;;1.10;99.90;;;;;;5006573;28;20044;-77
2023/01/18 11:48:29;;;;;;;49.70;36.05;;;1.20;99.90;;;;;;5017545;28;20056;-83
2023/01/18 11:51:06;;;;;;;49.30;37.08;;;1.10;99.90;;;;;;5011535;28;20057;-78
2023/01/18 11:53:57;;;;;;;45.10;33.75;;;1.10;99.90;;;;;;5018386;28;20551;-77
2023/01/18 11:56:30;;;;;;;39.80;32.97;;;1.00;99.90;;;;;;5020164;28;20203;-79
2023/01/18 11:58:58;;;;;;;46.13;35.30;;;1.00;99.90;;;;;;5020724;28;20051;-77
2023/01/18 12:01:51;;;;;;;44.63;33.35;;;0.90;99.90;;;;;;5019714;28;20072;-76
2023/01/18 12:04:40;;;;;;;52.25;33.55;;;1.00;99.90;;;;;;4973693;28;20106;-79
2023/01/18 12:07:33;;;;;;;40.00;29.23;;;1.10;99.90;;;;;;5009233;28;20128;-79
2023/01/18 12:10:00;;;;;;;43.95;32.70;;;1.00;99.90;;;;;;5015095;28;20049;-81
2023/01/18 12:13:25;;;;;;;38.00;32.35;;;1.00;99.90;;;;;;4992402;28;20084;-77
2023/01/18 12:16:14;;;;;;;48.47;37.45;;;1.10;99.90;;;;;;4967392;28;20517;-81
2023/01/18 12:19:11;;;;;;;48.80;36.33;;;1.30;99.90;;;;;;5027224;28;20052;-78
2023/01/18 12:21:49;;;;;;;56.42;39.47;;;1.20;99.90;;;;;;5002404;28;20288;-76
2023/01/18 12:24:35;;;;;;;48.35;38.03;;;1.30;99.90;;;;;;5013187;28;20315;-78
2023/01/18 12:27:22;;;;;;;46.22;37.05;;;1.20;99.90;;;;;;4996565;28;20145;-77
2023/01/18 12:30:31;;;;;;;50.40;37.03;;;1.10;99.90;;;;;;5013196;28;20045;-79
2023/01/18 12:33:16;;;;;;;46.85;37.72;;;1.20;99.90;;;;;;5004521;28;20045;-76
2023/01/18 12:36:02;;;;;;;49.13;37.25;;;1.20;99.90;;;;;;5008520;28;20128;-80
2023/01/18 12:38:31;;;;;;;41.33;35.15;;;1.30;99.90;;;;;;5013116;28;20057;-81
2023/01/18 12:41:22;;;;;;;57.55;39.35;;;1.40;99.90;;;;;;5026831;28;20041;-82
2023/01/18 12:44:32;;;;;;;43.22;35.38;;;1.40;99.90;;;;;;5028192;28;20069;-81
2023/01/18 12:47:33;;;;;;;37.80;33.88;;;1.30;99.90;;;;;;5018390;28;20048;-76
2023/01/18 12:50:13;;;;;;;40.50;33.42;;;1.20;99.90;;;;;;4997588;28;20045;-76
2023/01/18 12:52:47;;;;;;;40.75;36.25;;;1.20;99.90;;;;;;5013083;28;20080;-79
2023/01/18 12:55:19;;;;;;;37.53;33.50;;;1.20;99.90;;;;;;4997706;28;20042;-77
2023/01/18 12:57:53;;;;;;;38.42;34.55;;;1.20;99.90;;;;;;5027562;28;20068;-77
2023/01/18 13:00:32;;;;;;;40.53;33.33;;;1.20;99.90;;;;;;5013149;28;20128;-78
2023/01/18 13:02:59;;;;;;;36.88;33.17;;;1.20;99.90;;;;;;5016875;28;20040;-77
2023/01/18 13:05:49;;;;;;;39.78;35.88;;;1.10;99.90;;;;;;5006420;28;20055;-78
2023/01/18 13:08:30;;;;;;;33.60;29.90;;;1.20;99.90;;;;;;5006147;28;20056;-78
2023/01/18 13:11:07;;;;;;;36.00;31.08;;;1.30;99.90;;;;;;4988432;28;20045;-80
2023/01/18 13:13:35;;;;;;;33.22;29.85;;;1.40;99.90;;;;;;4990829;28;20080;-78
2023/01/18 13:16:18;;;;;;;37.03;30.20;;;1.40;99.90;;;;;;5010689;28;20438;-79
2023/01/18 13:18:54;;;;;;;31.88;28.75;;;1.40;99.90;;;;;;5000130;28;20060;-79
2023/01/18 13:21:36;;;;;;;35.08;31.50;;;1.40;99.90;;;;;;4985691;28;20048;-79
2023/01/18 13:24:10;;;;;;;33.60;30.10;;;1.30;99.90;;;;;;5002134;28;20056;-76
2023/01/18 13:26:37;;;;;;;34.42;30.77;;;1.20;99.90;;;;;;5005870;28;20532;-78
2023/01/18 13:29:27;;;;;;;35.70;31.83;;;1.20;99.90;;;;;;5015606;28;20040;-77